createdAt,value
2023-03-02T00:03:19.186Z,100737.40
2023-03-02T00:06:45.718Z,100735.13
2023-03-02T00:10:34.202Z,100732.38
2023-03-02T00:14:13.287Z,100729.45
2023-03-02T00:17:37.832Z,100733.61
2023-03-02T00:21:27.254Z,100729.77
2023-03-02T00:24:14.965Z,100725.61
2023-03-02T00:27:37.683Z,100723.45
2023-03-02T00:30:30.693Z,100726.42
2023-03-02T00:34:15.603Z,100721.84
2023-03-02T00:37:20.280Z,100719.28
2023-03-02T00:41:17.383Z,100715.97
2023-03-02T00:44:56.071Z,100713.51
2023-03-02T00:48:34.145Z,100708.66
2023-03-02T00:52:14.105Z,100702.58
2023-03-02T00:56:28.216Z,100700.84
2023-03-02T01:04:10.665Z,100688.87
2023-03-02T01:08:03.882Z,100687.30
2023-03-02T01:12:07.852Z,100686.16
2023-03-02T01:19:47.969Z,100678.28
2023-03-02T01:27:14.673Z,100676.34
2023-03-02T01:30:42.131Z,100677.00
2023-03-02T01:34:53.285Z,100674.23
2023-03-02T01:38:38.319Z,100673.09
2023-03-02T01:42:54.950Z,100674.51
2023-03-02T01:46:08.240Z,100677.73
2023-03-02T01:50:05.842Z,100672.15
2023-03-02T01:53:42.418Z,100677.36
2023-03-02T01:57:56.083Z,100676.81
2023-03-02T02:01:03.080Z,100678.48
2023-03-02T02:09:13.614Z,100670.32
2023-03-02T02:13:13.948Z,100670.42
2023-03-02T02:21:14.029Z,100664.95
2023-03-02T02:29:11.718Z,100666.06
2023-03-02T02:33:09.991Z,100661.96
2023-03-02T02:37:54.692Z,100662.42
2023-03-02T02:42:18.312Z,100653.52
2023-03-02T02:54:35.874Z,100646.43
2023-03-02T03:02:07.670Z,100640.10
2023-03-02T03:13:48.501Z,100633.46
2023-03-02T03:17:28.625Z,100631.83
2023-03-02T03:25:06.990Z,100625.86
2023-03-02T03:27:34.179Z,100631.94
2023-03-02T03:28:04.468Z,100624.78
2023-03-02T03:52:25.319Z,100617.36
2023-03-02T03:53:44.591Z,100617.73
2023-03-02T03:57:29.140Z,100617.02
2023-03-02T04:04:46.728Z,100616.13
2023-03-02T04:07:55.703Z,100610.77
2023-03-02T04:11:23.814Z,100611.65
2023-03-02T04:15:38.311Z,100610.05
2023-03-02T04:19:27.664Z,100604.67
2023-03-02T04:23:04.050Z,100604.63
2023-03-02T04:27:16.586Z,100606.86
2023-03-02T04:35:59.011Z,100603.53
2023-03-02T04:39:27.639Z,100602.56
2023-03-02T04:49:16.283Z,100608.57
2023-03-02T04:55:05.531Z,100603.21
2023-03-02T04:58:43.939Z,100600.84
2023-03-02T05:14:11.640Z,100606.39
2023-03-02T05:18:12.663Z,100613.57
2023-03-02T05:53:53.224Z,100611.41
2023-03-02T05:56:40.218Z,100610.58
2023-03-02T05:59:13.484Z,100613.35
2023-03-02T06:01:41.392Z,100613.88
2023-03-02T06:04:09.020Z,100612.84
2023-03-02T06:06:40.047Z,100608.54
2023-03-02T06:09:13.809Z,100610.81
2023-03-02T06:12:25.380Z,100616.09
2023-03-02T06:14:59.892Z,100620.92
2023-03-02T06:34:32.749Z,100632.42
2023-03-02T06:37:30.840Z,100636.46
2023-03-02T06:39:59.977Z,100633.86
2023-03-02T06:43:29.686Z,100631.63
2023-03-02T06:46:18.251Z,100632.52
2023-03-02T06:49:48.449Z,100629.02
2023-03-02T06:53:28.014Z,100633.13
2023-03-02T06:57:17.267Z,100632.46
2023-03-02T07:03:48.528Z,100634.21
2023-03-02T07:06:16.262Z,100635.70
2023-03-02T07:08:43.966Z,100641.81
2023-03-02T07:11:14.702Z,100642.42
2023-03-02T07:13:44.562Z,100646.05
2023-03-02T07:16:18.978Z,100642.68
2023-03-02T07:19:00.096Z,100646.35
2023-03-02T07:21:37.247Z,100643.44
2023-03-02T07:24:45.545Z,100639.44
2023-03-02T07:27:22.317Z,100638.61
2023-03-02T07:29:49.356Z,100637.73
2023-03-02T07:32:17.198Z,100635.20
2023-03-02T07:34:44.307Z,100630.18
2023-03-02T07:37:11.298Z,100629.59
2023-03-02T07:39:38.709Z,100631.27
2023-03-02T07:42:08.362Z,100631.63
2023-03-02T07:44:36.160Z,100630.41
2023-03-02T07:47:03.623Z,100628.85
2023-03-02T07:49:30.779Z,100622.88
2023-03-02T07:51:57.810Z,100626.01
2023-03-02T07:54:26.967Z,100622.06
2023-03-02T07:56:53.960Z,100623.31
2023-03-02T07:59:24.864Z,100624.56
2023-03-02T08:01:52.098Z,100627.04
2023-03-02T08:04:23.922Z,100623.65
2023-03-02T08:06:51.444Z,100624.45
2023-03-02T08:09:18.581Z,100626.06
2023-03-02T08:11:47.568Z,100620.23
2023-03-02T08:14:14.635Z,100617.13
2023-03-02T08:16:41.904Z,100614.02
2023-03-02T08:19:11.881Z,100609.19
2023-03-02T08:21:39.099Z,100610.39
2023-03-02T08:24:06.355Z,100605.03
2023-03-02T08:26:33.260Z,100600.00
2023-03-02T08:29:12.537Z,100598.80
2023-03-02T08:31:40.040Z,100595.33
2023-03-02T08:34:07.384Z,100597.92
2023-03-02T08:36:42.733Z,100600.36
2023-03-02T08:39:09.645Z,100598.80
2023-03-02T08:41:42.204Z,100598.45
2023-03-02T08:44:17.344Z,100601.05
2023-03-02T08:46:45.470Z,100601.40
2023-03-02T08:49:12.657Z,100598.64
2023-03-02T08:51:46.079Z,100593.79
2023-03-02T08:54:16.202Z,100596.39
2023-03-02T08:56:44.103Z,100594.83
2023-03-02T08:59:13.296Z,100589.45
2023-03-02T09:01:42.757Z,100584.94
2023-03-02T09:04:12.995Z,100582.16
2023-03-02T09:06:43.026Z,100582.33
2023-03-02T09:09:14.611Z,100581.80
2023-03-02T09:11:44.882Z,100580.75
2023-03-02T09:14:18.257Z,100582.64
2023-03-02T09:16:52.173Z,100578.47
2023-03-02T09:19:22.752Z,100582.27
2023-03-02T09:21:49.833Z,100578.94
2023-03-02T09:24:17.482Z,100577.86
2023-03-02T09:26:50.756Z,100578.52
2023-03-02T09:29:18.206Z,100582.16
2023-03-02T09:31:45.351Z,100584.40
2023-03-02T09:34:12.785Z,100576.90
2023-03-02T09:36:41.714Z,100580.36
2023-03-02T09:39:14.356Z,100579.15
2023-03-02T09:41:58.586Z,100577.73
2023-03-02T09:44:54.855Z,100576.96
2023-03-02T09:47:36.200Z,100572.55
2023-03-02T09:50:12.857Z,100571.27
2023-03-02T09:53:19.162Z,100569.45
2023-03-02T09:55:58.511Z,100567.35
2023-03-02T09:58:39.492Z,100571.27
2023-03-02T10:01:16.702Z,100567.02
2023-03-02T10:04:08.008Z,100567.44
2023-03-02T10:06:44.680Z,100560.27
2023-03-02T10:09:12.269Z,100560.65
2023-03-02T10:12:10.086Z,100563.52
2023-03-02T10:15:13.288Z,100568.08
2023-03-02T10:17:55.313Z,100566.16
2023-03-02T10:20:48.349Z,100565.32
2023-03-02T10:23:59.866Z,100563.48
2023-03-02T10:26:35.319Z,100557.79
2023-03-02T10:29:41.798Z,100560.85
2023-03-02T10:32:27.294Z,100555.36
2023-03-02T10:35:01.588Z,100555.91
2023-03-02T10:37:30.581Z,100556.14
2023-03-02T10:40:00.268Z,100557.46
2023-03-02T10:42:41.050Z,100556.02
2023-03-02T10:45:26.891Z,100556.38
2023-03-02T10:48:08.525Z,100556.63
2023-03-02T10:50:36.955Z,100554.02
2023-03-02T10:53:10.783Z,100550.73
2023-03-02T10:55:52.355Z,100549.45
2023-03-02T10:58:26.989Z,100546.07
2023-03-02T11:01:16.315Z,100546.98
2023-03-02T11:03:56.955Z,100541.38
2023-03-02T11:06:24.545Z,100539.46
2023-03-02T11:09:07.123Z,100536.56
2023-03-02T11:11:34.941Z,100535.42
2023-03-02T11:14:21.857Z,100525.70
2023-03-02T11:16:51.524Z,100527.01
2023-03-02T11:19:47.924Z,100530.08
2023-03-02T11:22:45.434Z,100526.51
2023-03-02T11:25:39.425Z,100520.77
2023-03-02T11:28:36.142Z,100519.05
2023-03-02T11:31:07.438Z,100523.23
2023-03-02T11:33:41.846Z,100523.90
2023-03-02T11:36:25.795Z,100518.35
2023-03-02T11:39:00.195Z,100519.06
2023-03-02T11:41:36.209Z,100523.54
2023-03-02T11:44:26.867Z,100521.20
2023-03-02T11:47:02.453Z,100520.05
2023-03-02T11:49:37.821Z,100520.62
2023-03-02T11:52:37.907Z,100521.85
2023-03-02T11:55:18.673Z,100521.48
2023-03-02T11:58:14.953Z,100517.77
2023-03-02T12:00:43.164Z,100515.67
2023-03-02T12:03:37.898Z,100516.70
2023-03-02T12:06:28.338Z,100514.66
2023-03-02T12:09:23.921Z,100511.98
2023-03-02T12:12:25.131Z,100509.70
2023-03-02T12:15:05.932Z,100509.95
2023-03-02T12:17:34.737Z,100507.59
2023-03-02T12:20:28.437Z,100504.95
2023-03-02T12:23:08.821Z,100507.40
2023-03-02T12:25:51.838Z,100500.05
2023-03-02T12:28:44.488Z,100500.44
2023-03-02T12:31:41.080Z,100501.69
2023-03-02T12:34:34.828Z,100494.83
2023-03-02T12:37:51.035Z,100490.88
2023-03-02T12:40:54.256Z,100491.45
2023-03-02T12:43:30.942Z,100493.44
2023-03-02T12:46:35.173Z,100487.33
2023-03-02T12:49:12.855Z,100486.80
2023-03-02T12:51:58.556Z,100483.20
2023-03-02T12:54:31.549Z,100484.06
2023-03-02T12:57:19.412Z,100484.10
2023-03-02T12:59:56.036Z,100478.52
2023-03-02T13:02:30.305Z,100480.05
2023-03-02T13:05:08.744Z,100473.30
2023-03-02T13:07:41.644Z,100469.11
2023-03-02T13:10:37.808Z,100467.29
2023-03-02T13:13:26.420Z,100459.71
2023-03-02T13:16:26.603Z,100456.14
2023-03-02T13:19:05.822Z,100453.85
2023-03-02T13:21:56.852Z,100452.83
2023-03-02T13:24:44.801Z,100451.34
2023-03-02T13:27:28.427Z,100447.38
2023-03-02T13:30:26.677Z,100441.93
2023-03-02T13:33:17.253Z,100436.09
2023-03-02T13:35:48.013Z,100437.92
2023-03-02T13:38:36.879Z,100438.80
2023-03-02T13:41:09.442Z,100431.60
2023-03-02T13:43:42.560Z,100426.83
2023-03-02T13:46:19.606Z,100429.63
2023-03-02T13:49:10.993Z,100422.34
2023-03-02T13:52:43.046Z,100416.27
2023-03-02T13:55:19.749Z,100413.67
2023-03-02T13:58:09.353Z,100409.61
2023-03-02T14:00:38.965Z,100412.36
2023-03-02T14:03:40.097Z,100410.33
2023-03-02T14:06:30.309Z,100409.73
2023-03-02T14:09:38.853Z,100407.94
2023-03-02T14:12:06.843Z,100405.92
2023-03-02T14:14:43.293Z,100406.14
2023-03-02T14:17:49.458Z,100403.05
2023-03-02T14:20:20.528Z,100401.84
2023-03-02T14:22:50.174Z,100404.95
2023-03-02T14:25:20.350Z,100406.81
2023-03-02T14:27:47.673Z,100406.10
2023-03-02T14:30:19.379Z,100398.81
2023-03-02T14:32:47.211Z,100396.72
2023-03-02T14:35:16.313Z,100396.33
2023-03-02T14:37:47.517Z,100391.47
2023-03-02T14:40:20.136Z,100390.60
2023-03-02T14:43:25.539Z,100387.79
2023-03-02T14:45:53.161Z,100391.41
2023-03-02T14:48:23.554Z,100385.73
2023-03-02T14:50:51.523Z,100392.61
2023-03-02T14:53:26.136Z,100390.30
2023-03-02T14:55:53.788Z,100384.73
2023-03-02T14:58:39.347Z,100381.24
2023-03-02T15:01:09.089Z,100377.06
2023-03-02T15:03:40.004Z,100379.43
2023-03-02T15:06:28.633Z,100374.70
2023-03-02T15:08:59.891Z,100374.10
2023-03-02T15:11:50.262Z,100374.21
2023-03-02T15:14:53.153Z,100376.95
2023-03-02T15:17:20.204Z,100374.16
2023-03-02T15:19:47.951Z,100374.81
2023-03-02T15:22:16.319Z,100371.17
2023-03-02T15:24:43.328Z,100363.21
2023-03-02T15:27:23.157Z,100368.39
2023-03-02T15:29:50.693Z,100365.81
2023-03-02T15:32:18.087Z,100369.11
2023-03-02T15:34:45.464Z,100366.68
2023-03-02T15:37:12.640Z,100363.90
2023-03-02T15:39:52.188Z,100363.55
2023-03-02T15:42:28.367Z,100364.06
2023-03-02T15:44:58.047Z,100361.13
2023-03-02T15:47:37.497Z,100360.81
2023-03-02T15:50:13.137Z,100362.17
2023-03-02T15:52:41.134Z,100358.16
2023-03-02T15:55:14.153Z,100354.88
2023-03-02T15:57:41.554Z,100352.00
2023-03-02T16:00:11.154Z,100349.77
2023-03-02T16:02:40.098Z,100350.11
2023-03-02T16:05:08.620Z,100350.05
2023-03-02T16:07:46.038Z,100346.77
2023-03-02T16:10:15.901Z,100342.64
2023-03-02T16:12:43.499Z,100341.23
2023-03-02T16:15:13.687Z,100343.92
2023-03-02T16:17:44.075Z,100341.22
2023-03-02T16:20:11.747Z,100340.55
2023-03-02T16:22:41.494Z,100344.98
2023-03-02T16:25:09.254Z,100338.05
2023-03-02T16:27:37.106Z,100344.98
2023-03-02T16:30:08.046Z,100346.02
2023-03-02T16:32:35.148Z,100349.78
2023-03-02T16:35:02.291Z,100356.88
2023-03-02T16:37:29.292Z,100356.71
2023-03-02T16:39:56.674Z,100358.27
2023-03-02T16:42:23.499Z,100359.61
2023-03-02T16:45:12.328Z,100357.89
2023-03-02T16:47:45.276Z,100356.58
2023-03-02T16:50:14.324Z,100355.09
2023-03-02T16:52:45.029Z,100354.61
2023-03-02T16:55:22.176Z,100357.05
2023-03-02T16:57:49.415Z,100354.04
2023-03-02T17:00:27.190Z,100361.69
2023-03-02T17:03:08.652Z,100358.86
2023-03-02T17:05:42.427Z,100360.66
2023-03-02T17:08:14.143Z,100367.06
2023-03-02T17:10:46.156Z,100367.20
2023-03-02T17:13:17.027Z,100371.12
2023-03-02T17:15:44.281Z,100371.66
2023-03-02T17:18:17.135Z,100376.30
2023-03-02T17:21:09.494Z,100372.89
2023-03-02T17:23:39.671Z,100378.88
2023-03-02T17:26:11.819Z,100378.40
2023-03-02T17:28:42.184Z,100381.79
2023-03-02T17:31:13.242Z,100383.85
2023-03-02T17:33:54.568Z,100389.70
2023-03-02T17:36:28.268Z,100389.52
2023-03-02T17:39:07.685Z,100387.94
2023-03-02T17:41:41.249Z,100389.67
2023-03-02T17:44:16.983Z,100392.11
2023-03-02T17:47:08.073Z,100390.52
2023-03-02T17:49:42.589Z,100391.20
2023-03-02T17:52:18.868Z,100388.95
2023-03-02T17:54:55.144Z,100388.95
2023-03-02T17:57:26.087Z,100388.59
2023-03-02T18:00:19.494Z,100387.58
2023-03-02T18:03:01.670Z,100387.23
2023-03-02T18:05:47.300Z,100386.98
2023-03-02T18:08:40.977Z,100383.67
2023-03-02T18:11:42.300Z,100379.92
2023-03-02T18:14:30.008Z,100378.54
2023-03-02T18:17:32.673Z,100378.91
2023-03-02T18:20:00.149Z,100384.12
2023-03-02T18:22:30.259Z,100385.75
2023-03-02T18:25:06.711Z,100386.52
2023-03-02T18:28:03.290Z,100384.88
2023-03-02T18:30:33.630Z,100388.09
2023-03-02T18:33:10.775Z,100385.41
2023-03-02T18:35:46.820Z,100387.63
2023-03-02T18:38:14.094Z,100386.01
2023-03-02T18:40:46.655Z,100384.45
2023-03-02T18:43:20.318Z,100383.61
2023-03-02T18:45:48.005Z,100386.55
2023-03-02T18:48:23.835Z,100390.52
2023-03-02T18:51:02.967Z,100392.05
2023-03-02T18:53:37.779Z,100389.00
2023-03-02T18:56:05.997Z,100390.48
2023-03-02T18:58:34.172Z,100391.44
2023-03-02T19:01:07.190Z,100386.55
2023-03-02T19:03:48.552Z,100387.94
2023-03-02T19:06:24.911Z,100389.90
2023-03-02T19:09:05.172Z,100388.41
2023-03-02T19:11:45.505Z,100388.80
2023-03-02T19:14:12.764Z,100388.60
2023-03-02T19:16:49.139Z,100389.09
2023-03-02T19:19:18.667Z,100391.56
2023-03-02T19:22:08.647Z,100395.14
2023-03-02T19:24:50.152Z,100397.81
2023-03-02T19:27:19.849Z,100400.02
2023-03-02T19:30:01.250Z,100399.77
2023-03-02T19:32:37.122Z,100406.81
2023-03-02T19:35:06.547Z,100409.73
2023-03-02T19:37:43.074Z,100411.98
2023-03-02T19:40:27.756Z,100412.77
2023-03-02T19:45:55.266Z,100411.17
2023-03-02T19:48:35.183Z,100407.23
2023-03-02T19:51:19.387Z,100403.44
2023-03-02T19:53:50.851Z,100399.98
2023-03-02T19:56:29.774Z,100396.66
2023-03-02T19:59:32.050Z,100394.41
2023-03-02T20:02:19.523Z,100394.21
2023-03-02T20:04:58.737Z,100391.47
2023-03-02T20:08:26.479Z,100385.48
2023-03-02T20:11:00.833Z,100385.79
2023-03-02T20:13:33.802Z,100386.29
2023-03-02T20:16:19.587Z,100385.14
2023-03-02T20:18:52.967Z,100384.95
2023-03-02T20:21:29.066Z,100387.23
2023-03-02T20:24:27.819Z,100386.76
2023-03-02T20:27:00.141Z,100389.88
2023-03-02T20:29:35.478Z,100388.77
2023-03-02T20:32:10.826Z,100389.44
2023-03-02T20:34:52.753Z,100386.01
2023-03-02T20:37:37.308Z,100387.39
2023-03-02T20:40:30.191Z,100385.83
2023-03-02T20:43:18.245Z,100379.98
2023-03-02T20:45:50.349Z,100375.73
2023-03-02T20:48:21.855Z,100370.10
2023-03-02T20:50:52.654Z,100368.20
2023-03-02T20:53:35.854Z,100373.89
2023-03-02T20:56:13.909Z,100376.30
2023-03-02T20:58:48.613Z,100380.73
2023-03-02T21:01:29.343Z,100382.23
2023-03-02T21:03:56.632Z,100388.36
2023-03-02T21:06:37.645Z,100392.36
2023-03-02T21:09:11.938Z,100398.06
2023-03-02T21:11:50.036Z,100399.56
2023-03-02T21:14:35.785Z,100391.79
2023-03-02T21:17:16.544Z,100387.30
2023-03-02T21:19:52.286Z,100375.20
2023-03-02T21:22:27.027Z,100372.58
2023-03-02T21:24:57.518Z,100372.13
2023-03-02T21:27:25.699Z,100371.35
2023-03-02T21:30:04.067Z,100373.96
2023-03-02T21:32:33.193Z,100374.81
2023-03-02T21:35:04.201Z,100374.15
2023-03-02T21:37:42.175Z,100377.59
2023-03-02T21:40:23.419Z,100372.65
2023-03-02T21:42:52.046Z,100372.95
2023-03-02T21:45:22.417Z,100366.77
2023-03-02T21:47:50.744Z,100368.73
2023-03-02T21:50:35.027Z,100367.63
2023-03-02T21:53:13.366Z,100363.98
2023-03-02T21:55:49.846Z,100362.39
2023-03-02T21:58:28.684Z,100362.39
2023-03-02T22:01:39.342Z,100363.72
2023-03-02T22:04:22.238Z,100366.16
2023-03-02T22:07:11.166Z,100372.03
2023-03-02T22:10:03.344Z,100360.23
2023-03-02T22:12:52.672Z,100358.00
2023-03-02T22:15:36.619Z,100354.40
2023-03-02T22:18:33.365Z,100359.16
2023-03-02T22:21:54.438Z,100363.19
2023-03-02T22:24:53.737Z,100355.25
2023-03-02T22:27:31.656Z,100345.79
2023-03-02T22:30:21.428Z,100345.47
2023-03-02T22:33:01.247Z,100342.88
2023-03-02T22:35:37.114Z,100342.01
2023-03-02T22:38:53.339Z,100343.23
2023-03-02T22:42:28.105Z,100351.50
2023-03-02T22:45:50.763Z,100352.02
2023-03-02T22:49:07.237Z,100347.24
2023-03-02T22:51:56.530Z,100345.19
2023-03-02T22:54:41.351Z,100349.52
2023-03-02T22:57:44.806Z,100344.98
2023-03-02T23:00:41.998Z,100349.88
2023-03-02T23:03:57.995Z,100348.02
2023-03-02T23:07:13.461Z,100352.51
2023-03-02T23:11:32.809Z,100348.45
2023-03-02T23:15:29.959Z,100359.84
2023-03-02T23:19:15.520Z,100362.44
2023-03-02T23:22:06.336Z,100356.15
2023-03-02T23:25:11.600Z,100351.20
2023-03-02T23:28:14.676Z,100346.34
2023-03-02T23:31:10.585Z,100349.39
2023-03-02T23:34:20.710Z,100345.80
2023-03-02T23:37:24.166Z,100344.20
2023-03-02T23:40:12.172Z,100342.66
2023-03-02T23:43:30.763Z,100341.02
2023-03-02T23:46:55.373Z,100338.14
2023-03-02T23:54:22.831Z,100335.27
2023-03-02T23:58:26.099Z,100331.43
